Time;durP1;ratioP1;P1;durP2;ratioP2;P2;SDS_P1;SDS_P2;PMS_P1;PMS_P2;Temp;Humidity;BMP_temperature;BMP_pressure;BME280_temperature;BME280_humidity;BME280_pressure;Samples;Min_cycle;Max_cycle;Signal;HPM_P1;HPM_P2
2022/06/14 00:01:35;;;;;;;1.17;0.80;;;15.00;99.90;;;;;;4956331;28;20460;-87
2022/06/14 00:04:02;;;;;;;1.13;0.80;;;15.00;99.90;;;;;;4966006;28;21033;-87
2022/06/14 00:06:32;;;;;;;2.87;0.70;;;15.00;99.90;;;;;;4958867;28;20468;-85
2022/06/14 00:09:00;;;;;;;1.63;0.70;;;14.90;99.90;;;;;;4960308;28;20523;-87
2022/06/14 00:11:30;;;;;;;0.60;0.60;;;14.90;99.90;;;;;;4954676;28;20472;-88
2022/06/14 00:13:59;;;;;;;0.90;0.60;;;14.80;99.90;;;;;;4961278;28;20599;-86
2022/06/14 00:16:27;;;;;;;3.17;0.63;;;14.80;99.90;;;;;;4961798;28;20471;-85
2022/06/14 00:18:55;;;;;;;0.70;0.70;;;14.80;99.90;;;;;;4955520;28;20475;-85
2022/06/14 00:21:22;;;;;;;1.20;0.80;;;14.80;99.90;;;;;;4956147;28;20550;-86
2022/06/14 00:23:51;;;;;;;0.83;0.70;;;14.80;99.90;;;;;;4953587;28;20469;-86
2022/06/14 00:26:18;;;;;;;1.80;0.60;;;14.70;99.90;;;;;;4961236;28;21060;-85
2022/06/14 00:28:46;;;;;;;0.60;0.60;;;14.90;99.90;;;;;;4961790;28;20488;-87
2022/06/14 00:31:16;;;;;;;1.10;0.60;;;14.90;99.90;;;;;;4957743;28;21221;-87
2022/06/14 00:33:44;;;;;;;3.07;0.93;;;14.90;99.90;;;;;;4959353;28;20468;-86
2022/06/14 00:36:20;;;;;;;0.50;0.50;;;14.90;99.90;;;;;;4953585;28;20527;-86
2022/06/14 00:38:47;;;;;;;0.90;0.70;;;14.80;99.90;;;;;;4957041;28;20471;-85
2022/06/14 00:41:27;;;;;;;1.33;1.23;;;14.70;99.90;;;;;;4958457;28;20472;-87
2022/06/14 00:43:55;;;;;;;1.07;0.57;;;14.70;99.90;;;;;;4958151;28;20479;-86
2022/06/14 00:46:27;;;;;;;0.70;0.70;;;14.70;99.90;;;;;;4947683;28;21068;-86
2022/06/14 00:49:04;;;;;;;1.30;1.20;;;14.60;99.90;;;;;;4960298;28;21242;-86
2022/06/14 00:51:37;;;;;;;2.73;0.90;;;14.60;99.90;;;;;;4961719;28;20475;-88
2022/06/14 00:54:11;;;;;;;7.27;0.60;;;14.40;99.90;;;;;;4959236;28;20537;-86
2022/06/14 00:56:47;;;;;;;1.00;0.60;;;14.10;99.90;;;;;;4961483;28;20466;-85
2022/06/14 00:59:18;;;;;;;1.33;0.60;;;14.00;99.90;;;;;;4962692;28;20491;-86
2022/06/14 01:01:47;;;;;;;1.10;0.70;;;13.90;99.90;;;;;;4959246;28;21074;-86
2022/06/14 01:04:18;;;;;;;3.90;1.00;;;13.80;99.90;;;;;;4955435;28;20469;-85
2022/06/14 01:06:55;;;;;;;0.60;0.50;;;13.70;99.90;;;;;;4958284;28;20547;-87
2022/06/14 01:09:27;;;;;;;1.20;0.67;;;13.60;99.90;;;;;;4952114;28;20510;-86
2022/06/14 01:12:00;;;;;;;0.67;0.60;;;13.50;99.90;;;;;;4960463;28;20601;-85
2022/06/14 01:14:39;;;;;;;0.70;0.70;;;13.50;99.90;;;;;;4952201;28;20482;-86
2022/06/14 01:17:07;;;;;;;0.93;0.70;;;13.40;99.90;;;;;;4958872;28;20556;-85
2022/06/14 01:19:34;;;;;;;0.90;0.83;;;13.30;99.90;;;;;;4964521;28;20498;-85
2022/06/14 01:22:29;;;;;;;1.13;0.73;;;13.20;99.90;;;;;;4961686;28;20482;-85
2022/06/14 01:24:57;;;;;;;1.23;1.13;;;13.10;99.90;;;;;;4964287;28;20493;-86
2022/06/14 01:27:27;;;;;;;0.60;0.60;;;13.10;99.90;;;;;;4961498;28;20467;-85
2022/06/14 01:30:08;;;;;;;1.33;1.23;;;13.10;99.90;;;;;;4955644;28;20664;-85
2022/06/14 01:32:41;;;;;;;1.23;1.07;;;13.10;99.90;;;;;;4963323;28;20839;-86
2022/06/14 01:35:16;;;;;;;0.93;0.93;;;13.10;99.90;;;;;;4950895;28;20926;-86
2022/06/14 01:37:47;;;;;;;0.70;0.70;;;13.10;99.90;;;;;;4956669;28;20559;-86
2022/06/14 01:40:14;;;;;;;1.10;0.77;;;13.20;99.90;;;;;;4962615;28;20468;-87
2022/06/14 01:43:00;;;;;;;1.00;0.83;;;13.30;99.90;;;;;;4956747;28;20467;-86
2022/06/14 01:45:36;;;;;;;0.90;0.70;;;13.30;99.90;;;;;;4961705;28;20473;-86
2022/06/14 01:48:11;;;;;;;0.80;0.70;;;13.40;99.90;;;;;;4954875;28;20472;-88
2022/06/14 01:53:42;;;;;;;0.93;0.93;;;13.40;99.90;;;;;;4954523;28;20453;-86
2022/06/14 01:56:14;;;;;;;1.10;0.87;;;13.50;99.90;;;;;;4962363;28;20460;-86
2022/06/14 01:58:49;;;;;;;0.80;0.80;;;13.50;99.90;;;;;;4960041;28;20546;-88
2022/06/14 02:01:21;;;;;;;1.37;1.27;;;13.50;99.90;;;;;;4960716;28;20468;-86
2022/06/14 02:06:42;;;;;;;0.60;0.60;;;13.50;99.90;;;;;;4958745;28;20453;-87
2022/06/14 02:09:17;;;;;;;0.70;0.60;;;13.50;99.90;;;;;;4955044;28;20566;-85
2022/06/14 02:11:44;;;;;;;1.00;0.90;;;13.50;99.90;;;;;;4959745;28;21215;-86
2022/06/14 02:14:19;;;;;;;1.87;1.77;;;13.30;99.90;;;;;;4980157;28;20457;-88
2022/06/14 02:16:52;;;;;;;3.03;1.40;;;13.30;99.90;;;;;;4971549;28;20462;-86
2022/06/14 02:19:25;;;;;;;0.80;0.80;;;13.30;99.90;;;;;;4963034;28;20881;-86
2022/06/14 02:21:58;;;;;;;1.43;0.80;;;13.10;99.90;;;;;;4964988;28;20476;-87
2022/06/14 02:24:31;;;;;;;0.73;0.73;;;13.10;99.90;;;;;;4956110;28;20472;-88
2022/06/14 02:27:02;;;;;;;1.07;0.80;;;13.00;99.90;;;;;;4961419;28;20534;-86
2022/06/14 02:29:32;;;;;;;0.73;0.60;;;12.90;99.90;;;;;;4957223;28;20542;-86
2022/06/14 02:32:04;;;;;;;1.00;0.77;;;12.80;99.90;;;;;;4961769;28;20522;-86
2022/06/14 02:34:36;;;;;;;2.77;1.40;;;12.80;99.90;;;;;;4962077;28;20973;-84
2022/06/14 02:37:09;;;;;;;1.33;0.80;;;12.90;99.90;;;;;;4953074;28;20470;-86
2022/06/14 02:39:43;;;;;;;1.37;1.23;;;12.90;99.90;;;;;;4952197;28;20466;-87
2022/06/14 02:42:15;;;;;;;1.27;1.17;;;12.90;99.90;;;;;;4986337;28;21034;-86
2022/06/14 02:44:46;;;;;;;1.13;1.03;;;12.70;99.90;;;;;;4960624;28;20472;-88
2022/06/14 02:47:19;;;;;;;0.87;0.60;;;12.70;99.90;;;;;;4963164;28;20516;-85
2022/06/14 02:49:52;;;;;;;1.30;1.00;;;12.70;99.90;;;;;;4957227;28;20501;-86
2022/06/14 02:52:25;;;;;;;1.63;0.80;;;12.60;99.90;;;;;;4959698;28;21187;-86
2022/06/14 02:54:59;;;;;;;0.63;0.60;;;12.60;99.90;;;;;;4954119;28;20472;-84
2022/06/14 02:57:34;;;;;;;0.73;0.73;;;12.60;99.90;;;;;;4963376;28;20557;-85
2022/06/14 03:00:06;;;;;;;2.83;1.10;;;12.50;99.90;;;;;;4955459;28;20882;-87
2022/06/14 03:02:38;;;;;;;0.90;0.90;;;12.50;99.90;;;;;;4962640;28;20467;-86
2022/06/14 03:05:11;;;;;;;0.83;0.80;;;12.50;99.90;;;;;;4957990;28;21107;-86
2022/06/14 03:07:44;;;;;;;1.33;0.70;;;12.60;99.90;;;;;;4958423;28;20517;-85
2022/06/14 03:10:13;;;;;;;0.80;0.80;;;12.60;99.90;;;;;;4958278;28;20493;-88
2022/06/14 03:12:46;;;;;;;1.17;0.90;;;12.60;99.90;;;;;;4957466;28;20533;-87
2022/06/14 03:15:21;;;;;;;0.83;0.70;;;12.70;99.90;;;;;;4952589;28;21030;-85
2022/06/14 03:18:00;;;;;;;0.77;0.67;;;12.70;99.90;;;;;;4955339;28;20532;-86
2022/06/14 03:20:39;;;;;;;1.03;0.97;;;12.70;99.90;;;;;;4960831;28;20479;-88
2022/06/14 03:23:15;;;;;;;1.17;1.07;;;12.80;99.90;;;;;;4957565;28;20966;-86
2022/06/14 03:25:49;;;;;;;1.03;0.80;;;12.80;99.90;;;;;;4954556;28;20447;-85
2022/06/14 03:28:22;;;;;;;1.17;0.70;;;12.70;99.90;;;;;;4963052;28;21935;-86
2022/06/14 03:30:53;;;;;;;1.97;0.63;;;12.90;99.90;;;;;;4965248;28;20539;-85
2022/06/14 03:33:26;;;;;;;2.80;1.30;;;13.00;99.90;;;;;;4963222;28;21257;-86
2022/06/14 03:35:55;;;;;;;1.30;1.10;;;13.20;99.90;;;;;;4961898;28;20739;-86
2022/06/14 03:38:29;;;;;;;1.53;1.43;;;13.30;99.90;;;;;;4955459;28;20483;-85
2022/06/14 03:40:58;;;;;;;1.43;1.20;;;13.30;99.90;;;;;;4959255;28;20472;-86
2022/06/14 03:43:26;;;;;;;1.77;0.80;;;13.40;99.90;;;;;;4955508;28;20961;-87
2022/06/14 03:45:59;;;;;;;0.80;0.80;;;13.30;99.90;;;;;;4962534;28;20464;-86
2022/06/14 03:48:27;;;;;;;2.10;1.10;;;13.40;99.90;;;;;;4961233;28;20466;-85
2022/06/14 03:51:03;;;;;;;1.27;1.17;;;13.30;99.90;;;;;;4958301;28;21173;-86
2022/06/14 03:53:47;;;;;;;2.03;1.47;;;13.30;99.90;;;;;;4964065;28;20481;-86
2022/06/14 03:56:31;;;;;;;0.90;0.90;;;13.40;99.90;;;;;;4950983;28;20515;-85
2022/06/14 03:59:08;;;;;;;0.80;0.80;;;13.60;99.90;;;;;;4926663;28;20458;-85
2022/06/14 04:01:44;;;;;;;1.33;1.03;;;13.60;99.90;;;;;;4922645;29;20464;-85
2022/06/14 04:04:34;;;;;;;1.97;1.50;;;13.50;99.90;;;;;;4925935;29;20478;-85
2022/06/14 04:07:15;;;;;;;0.97;0.90;;;13.50;99.90;;;;;;4925110;29;20480;-86
2022/06/14 04:09:50;;;;;;;1.20;0.97;;;13.60;99.90;;;;;;4927620;29;20495;-86
2022/06/14 04:12:25;;;;;;;1.33;1.23;;;13.50;99.90;;;;;;4921183;29;20476;-86
2022/06/14 04:15:11;;;;;;;4.80;1.33;;;13.50;99.90;;;;;;4924247;29;20740;-85
2022/06/14 04:17:45;;;;;;;4.30;1.03;;;13.60;99.90;;;;;;4923865;29;20496;-86
2022/06/14 04:20:20;;;;;;;1.27;1.20;;;13.90;99.90;;;;;;4924165;28;20495;-87
2022/06/14 04:22:54;;;;;;;1.00;0.90;;;13.90;99.90;;;;;;4910079;28;20470;-86
2022/06/14 04:25:29;;;;;;;1.33;1.03;;;13.90;99.90;;;;;;4921298;29;20479;-86
2022/06/14 04:28:08;;;;;;;1.20;1.07;;;13.90;99.90;;;;;;4922925;29;20536;-85
2022/06/14 04:30:41;;;;;;;1.03;0.90;;;13.90;99.90;;;;;;4922375;29;20517;-85
2022/06/14 04:33:14;;;;;;;1.30;0.90;;;13.90;99.90;;;;;;4928048;29;20456;-85
2022/06/14 04:35:51;;;;;;;1.03;1.03;;;13.80;99.90;;;;;;4913956;28;21247;-87
2022/06/14 04:38:22;;;;;;;1.50;1.40;;;13.90;99.90;;;;;;4913741;29;20456;-85
2022/06/14 04:40:57;;;;;;;0.90;0.90;;;14.10;99.90;;;;;;4910078;29;20474;-85
2022/06/14 04:43:30;;;;;;;1.70;1.60;;;14.30;99.90;;;;;;4913803;29;20483;-87
2022/06/14 04:46:02;;;;;;;1.33;1.23;;;14.30;99.90;;;;;;4924208;28;21045;-86
2022/06/14 04:48:35;;;;;;;1.40;1.30;;;14.30;99.90;;;;;;4927714;28;21251;-86
2022/06/14 04:51:07;;;;;;;1.97;0.67;;;14.20;99.90;;;;;;4928271;28;20495;-88
2022/06/14 04:53:40;;;;;;;1.07;0.97;;;14.40;99.90;;;;;;4921091;29;20531;-88
2022/06/14 04:56:16;;;;;;;1.27;1.10;;;14.50;99.90;;;;;;4923480;28;20483;-88
2022/06/14 04:58:51;;;;;;;0.80;0.70;;;14.60;99.90;;;;;;4960985;28;20501;-88
2022/06/14 05:01:23;;;;;;;0.87;0.87;;;14.70;99.90;;;;;;4963397;28;20535;-86
2022/06/14 05:03:56;;;;;;;1.43;1.23;;;14.70;99.90;;;;;;4960812;28;20845;-89
2022/06/14 05:06:28;;;;;;;2.20;1.13;;;14.90;99.90;;;;;;4967198;28;20558;-87
2022/06/14 05:09:00;;;;;;;13.40;1.30;;;15.00;99.90;;;;;;4953306;28;20465;-89
2022/06/14 05:11:37;;;;;;;1.20;1.10;;;15.10;99.90;;;;;;4960383;28;20471;-87
2022/06/14 05:14:09;;;;;;;1.23;1.07;;;15.30;99.90;;;;;;4964611;28;20478;-87
2022/06/14 05:16:41;;;;;;;1.83;1.00;;;15.40;99.90;;;;;;4970686;28;20969;-86
2022/06/14 05:19:18;;;;;;;1.20;1.10;;;15.30;99.90;;;;;;4959751;28;20476;-88
2022/06/14 05:21:50;;;;;;;1.00;0.90;;;15.30;99.90;;;;;;4965413;28;20497;-88
2022/06/14 05:24:18;;;;;;;3.13;1.10;;;15.30;99.90;;;;;;4956795;28;20616;-87
2022/06/14 05:27:15;;;;;;;1.40;1.30;;;15.30;99.90;;;;;;4957945;28;20885;-88
2022/06/14 05:29:49;;;;;;;1.37;1.10;;;15.60;99.90;;;;;;4933700;28;20487;-88
2022/06/14 05:32:24;;;;;;;0.87;0.80;;;15.40;99.90;;;;;;4961333;28;20991;-87
2022/06/14 05:35:05;;;;;;;2.27;1.10;;;15.50;99.90;;;;;;4956201;28;20889;-86
2022/06/14 05:37:40;;;;;;;0.80;0.70;;;15.40;99.90;;;;;;4959766;28;20552;-87
2022/06/14 05:40:15;;;;;;;1.10;1.10;;;15.30;99.90;;;;;;4961567;28;20487;-87
2022/06/14 05:42:48;;;;;;;1.07;0.97;;;15.40;99.90;;;;;;4959094;28;20532;-87
2022/06/14 05:45:22;;;;;;;1.50;0.90;;;15.50;99.90;;;;;;4965230;28;20456;-87
2022/06/14 05:47:51;;;;;;;1.00;0.90;;;15.60;99.90;;;;;;4968612;28;20474;-87
2022/06/14 05:50:24;;;;;;;1.57;1.00;;;15.60;99.90;;;;;;4955426;28;21156;-86
2022/06/14 05:52:57;;;;;;;5.60;1.63;;;15.80;99.90;;;;;;4964558;28;20546;-87
2022/06/14 05:55:32;;;;;;;1.80;0.90;;;15.90;99.90;;;;;;4963947;28;20469;-88
2022/06/14 05:58:04;;;;;;;1.57;1.00;;;16.00;99.90;;;;;;4962641;28;20562;-90
2022/06/14 06:00:40;;;;;;;4.03;1.10;;;16.20;99.90;;;;;;4957816;28;20478;-86
2022/06/14 06:03:11;;;;;;;1.70;1.60;;;16.40;99.90;;;;;;4955689;28;20482;-89
2022/06/14 06:05:42;;;;;;;1.23;1.13;;;16.50;99.90;;;;;;4960489;28;20540;-89
2022/06/14 06:08:16;;;;;;;1.10;1.00;;;16.80;99.90;;;;;;4955575;28;20487;-88
2022/06/14 06:10:46;;;;;;;4.23;1.43;;;16.70;99.90;;;;;;4959067;28;20491;-87
2022/06/14 06:13:19;;;;;;;9.33;1.40;;;16.90;99.90;;;;;;4962156;28;20472;-87
2022/06/14 06:15:52;;;;;;;1.20;1.10;;;17.00;99.90;;;;;;4961607;28;20876;-87
2022/06/14 06:18:25;;;;;;;1.37;1.20;;;16.80;99.90;;;;;;4962273;28;20456;-88
2022/06/14 06:20:58;;;;;;;2.50;1.07;;;16.90;99.90;;;;;;4959880;28;20952;-89
2022/06/14 06:23:30;;;;;;;1.80;0.90;;;17.20;99.90;;;;;;4962333;28;20466;-89
2022/06/14 06:25:59;;;;;;;1.47;1.00;;;17.30;99.90;;;;;;4965711;28;20728;-90
2022/06/14 06:28:28;;;;;;;9.03;0.70;;;17.40;99.90;;;;;;4961670;28;20456;-88
2022/06/14 06:31:04;;;;;;;0.87;0.87;;;17.30;99.90;;;;;;4960335;28;20485;-90
2022/06/14 06:33:35;;;;;;;0.70;0.70;;;17.60;99.10;;;;;;4961488;28;20850;-88
2022/06/14 06:36:14;;;;;;;0.97;0.87;;;17.70;98.20;;;;;;4959224;28;20869;-90
2022/06/14 06:38:54;;;;;;;0.77;0.60;;;17.60;97.60;;;;;;4958576;28;20468;-88
2022/06/14 06:44:33;;;;;;;1.70;0.60;;;17.60;98.00;;;;;;4970401;28;20988;-90
2022/06/14 06:47:08;;;;;;;1.17;0.80;;;17.90;97.00;;;;;;4957653;28;20468;-88
2022/06/14 06:49:42;;;;;;;1.60;0.67;;;17.90;96.90;;;;;;4962982;28;21132;-89
2022/06/14 06:52:12;;;;;;;2.33;0.80;;;18.20;96.50;;;;;;4960988;28;20468;-90
2022/06/14 06:54:45;;;;;;;1.20;0.63;;;18.20;95.10;;;;;;4962680;28;20992;-89
2022/06/14 06:57:18;;;;;;;3.90;0.50;;;18.30;95.40;;;;;;4952810;28;21023;-89
2022/06/14 06:59:48;;;;;;;0.90;0.60;;;18.50;93.70;;;;;;4961935;28;21315;-89
2022/06/14 07:02:24;;;;;;;0.60;0.60;;;18.20;93.20;;;;;;4955416;28;20506;-89
2022/06/14 07:05:05;;;;;;;0.93;0.80;;;18.30;93.50;;;;;;4957913;28;20468;-90
2022/06/14 07:07:41;;;;;;;0.60;0.60;;;18.90;94.50;;;;;;4958013;28;20550;-90
2022/06/14 07:10:18;;;;;;;2.57;0.80;;;18.60;92.20;;;;;;4958314;28;21033;-88
2022/06/14 07:12:53;;;;;;;2.10;0.70;;;18.40;93.40;;;;;;4951690;28;21010;-88
2022/06/14 07:15:25;;;;;;;2.70;0.80;;;18.90;93.50;;;;;;4955741;28;20527;-88
2022/06/14 07:18:02;;;;;;;3.80;0.70;;;19.10;91.90;;;;;;4962847;28;20990;-88
2022/06/14 07:20:37;;;;;;;2.73;0.50;;;19.30;91.00;;;;;;4958807;28;20475;-90
2022/06/14 07:23:15;;;;;;;0.93;0.50;;;19.80;92.10;;;;;;4957207;28;20563;-89
2022/06/14 07:25:51;;;;;;;0.93;0.60;;;20.30;83.10;;;;;;4957222;28;20464;-89
2022/06/14 07:28:23;;;;;;;1.37;0.80;;;20.00;89.10;;;;;;4956441;28;21233;-88
2022/06/14 07:30:53;;;;;;;0.80;0.60;;;19.80;89.60;;;;;;4956136;28;20502;-88
2022/06/14 07:33:25;;;;;;;1.53;1.00;;;19.70;85.90;;;;;;4955168;28;20468;-88
2022/06/14 07:35:54;;;;;;;0.60;0.60;;;19.80;90.90;;;;;;4958541;28;20947;-88
2022/06/14 07:38:29;;;;;;;0.70;0.70;;;20.00;92.30;;;;;;4954355;28;20581;-90
2022/06/14 07:41:01;;;;;;;2.30;0.80;;;19.80;90.10;;;;;;4953715;28;20587;-89
2022/06/14 07:43:35;;;;;;;1.10;0.90;;;19.70;90.10;;;;;;4959603;28;20781;-88
2022/06/14 07:46:06;;;;;;;2.03;0.90;;;19.90;89.60;;;;;;4958370;28;20471;-90
2022/06/14 07:48:43;;;;;;;0.70;0.60;;;20.00;91.20;;;;;;4956697;28;20496;-88
2022/06/14 07:51:19;;;;;;;3.37;0.70;;;20.00;89.80;;;;;;4960427;28;20581;-88
2022/06/14 07:53:55;;;;;;;1.00;0.80;;;19.90;89.20;;;;;;4956165;28;20504;-87
2022/06/14 07:56:27;;;;;;;2.10;0.80;;;20.60;92.50;;;;;;4956221;28;20558;-87
2022/06/14 07:59:03;;;;;;;1.43;0.87;;;20.60;91.00;;;;;;4946859;28;20477;-88
2022/06/14 08:01:34;;;;;;;0.67;0.67;;;21.00;90.30;;;;;;4955639;28;20596;-88
2022/06/14 08:04:07;;;;;;;2.50;0.87;;;21.50;87.50;;;;;;4953693;28;20486;-90
2022/06/14 08:06:38;;;;;;;2.30;0.80;;;21.50;86.00;;;;;;4954960;28;20503;-90
2022/06/14 08:09:18;;;;;;;0.60;0.60;;;21.20;88.30;;;;;;4959828;28;20494;-88
2022/06/14 08:11:50;;;;;;;5.83;0.80;;;21.20;90.80;;;;;;4972469;28;20483;-88
2022/06/14 08:14:21;;;;;;;2.63;0.70;;;21.70;86.80;;;;;;4969366;28;20456;-88
2022/06/14 08:16:49;;;;;;;1.27;0.60;;;21.80;84.50;;;;;;4962278;28;20460;-88
2022/06/14 08:19:22;;;;;;;1.33;0.60;;;21.90;83.80;;;;;;4968954;28;20464;-90
2022/06/14 08:21:52;;;;;;;1.27;0.80;;;21.90;83.10;;;;;;4958787;28;20484;-87
2022/06/14 08:24:22;;;;;;;1.10;0.77;;;21.90;86.80;;;;;;4956350;28;20463;-88
2022/06/14 08:26:55;;;;;;;0.60;0.60;;;22.30;84.90;;;;;;4960267;28;20522;-88
2022/06/14 08:29:26;;;;;;;0.80;0.60;;;22.40;84.40;;;;;;4962879;28;21783;-90
2022/06/14 08:31:58;;;;;;;1.70;0.90;;;22.10;84.50;;;;;;4960750;28;20996;-89
2022/06/14 08:34:34;;;;;;;0.77;0.77;;;22.30;84.30;;;;;;4961674;28;20468;-88
2022/06/14 08:37:07;;;;;;;3.93;1.27;;;22.00;80.60;;;;;;4961150;28;20468;-89
2022/06/14 08:39:39;;;;;;;1.07;1.03;;;22.10;84.20;;;;;;4958478;28;20473;-91
2022/06/14 08:42:25;;;;;;;0.60;0.60;;;22.00;78.20;;;;;;4958243;28;20475;-92
2022/06/14 08:44:58;;;;;;;0.73;0.73;;;21.60;78.40;;;;;;4959269;28;20581;-90
2022/06/14 08:47:52;;;;;;;0.70;0.70;;;21.20;77.60;;;;;;4957671;28;21152;-89
2022/06/14 08:50:45;;;;;;;0.60;0.60;;;21.30;80.00;;;;;;4960923;28;21134;-88
2022/06/14 08:53:50;;;;;;;1.27;0.90;;;21.50;77.10;;;;;;4952984;28;20987;-90
2022/06/14 08:56:33;;;;;;;1.40;1.00;;;21.70;77.40;;;;;;4959019;28;20498;-88
2022/06/14 08:59:36;;;;;;;1.13;0.50;;;21.20;82.90;;;;;;4953780;28;20472;-90
2022/06/14 09:02:42;;;;;;;1.33;0.73;;;21.30;78.10;;;;;;4957146;28;20505;-88
2022/06/14 09:05:44;;;;;;;2.00;0.80;;;21.70;73.90;;;;;;4934122;28;20506;-88
2022/06/14 09:08:51;;;;;;;0.77;0.77;;;21.90;71.70;;;;;;4950039;28;20456;-88
2022/06/14 09:12:04;;;;;;;2.73;0.70;;;22.30;74.80;;;;;;4953774;28;20501;-89
2022/06/14 09:15:07;;;;;;;0.70;0.60;;;22.20;78.70;;;;;;4993772;28;20493;-92
2022/06/14 09:18:12;;;;;;;1.47;1.30;;;22.90;77.10;;;;;;4958568;28;20486;-89
2022/06/14 09:20:42;;;;;;;0.60;0.50;;;22.60;69.00;;;;;;4930380;28;20469;-89
2022/06/14 09:23:23;;;;;;;1.10;1.00;;;22.60;73.40;;;;;;4959585;28;20556;-88
2022/06/14 09:26:20;;;;;;;1.30;0.67;;;22.50;69.40;;;;;;4962589;28;20504;-89
2022/06/14 09:29:18;;;;;;;1.07;0.83;;;22.60;74.10;;;;;;4950923;28;20925;-90
2022/06/14 09:32:17;;;;;;;1.10;0.87;;;23.20;69.20;;;;;;4961250;28;21034;-89
2022/06/14 09:35:07;;;;;;;1.53;0.90;;;23.20;66.70;;;;;;4957054;28;20476;-89
2022/06/14 09:37:56;;;;;;;1.53;0.70;;;22.90;64.90;;;;;;4958754;28;20474;-88
2022/06/14 09:41:07;;;;;;;1.57;0.73;;;22.80;65.80;;;;;;4957540;28;20907;-90
2022/06/14 09:44:26;;;;;;;0.57;0.50;;;22.30;64.10;;;;;;4978041;28;20504;-90
2022/06/14 09:47:21;;;;;;;1.93;0.70;;;22.40;67.40;;;;;;4890941;28;21016;-90
2022/06/14 09:50:22;;;;;;;2.03;1.07;;;22.30;59.80;;;;;;4891932;29;20471;-89
2022/06/14 09:53:29;;;;;;;0.60;0.60;;;22.40;66.00;;;;;;4963228;28;20952;-88
2022/06/14 09:56:35;;;;;;;0.80;0.60;;;22.50;65.50;;;;;;4953393;28;20554;-91
2022/06/14 09:59:30;;;;;;;2.30;0.93;;;22.50;66.60;;;;;;4955746;28;21023;-90
2022/06/14 10:02:06;;;;;;;1.33;0.73;;;22.30;67.60;;;;;;4955391;28;20480;-88
2022/06/14 10:04:53;;;;;;;2.20;0.70;;;22.60;66.90;;;;;;4957439;28;20460;-88
2022/06/14 10:07:56;;;;;;;1.73;0.80;;;23.00;64.80;;;;;;4958773;28;20475;-91
2022/06/14 10:10:34;;;;;;;0.80;0.80;;;22.70;60.80;;;;;;4953653;28;20456;-89
2022/06/14 10:13:41;;;;;;;1.37;0.60;;;22.80;61.90;;;;;;4954751;28;20464;-89
2022/06/14 10:16:17;;;;;;;0.77;0.67;;;22.80;62.40;;;;;;4958808;28;20948;-89
2022/06/14 10:19:04;;;;;;;1.07;0.87;;;22.60;59.00;;;;;;4958500;28;20523;-91
2022/06/14 10:21:38;;;;;;;1.70;0.63;;;22.70;65.20;;;;;;4959228;28;20554;-90
2022/06/14 10:24:18;;;;;;;1.00;0.60;;;23.10;66.50;;;;;;4957438;28;20468;-90
2022/06/14 10:30:03;;;;;;;1.20;1.07;;;22.90;61.00;;;;;;4959104;28;20493;-89
2022/06/14 10:32:54;;;;;;;1.20;1.10;;;23.10;58.00;;;;;;4952981;28;20500;-90
2022/06/14 10:35:32;;;;;;;1.77;0.70;;;23.50;58.80;;;;;;4950417;28;20476;-90
2022/06/14 10:38:59;;;;;;;0.67;0.67;;;23.80;61.30;;;;;;4954057;28;20964;-88
2022/06/14 10:41:35;;;;;;;0.83;0.70;;;23.40;62.50;;;;;;4897127;29;20704;-89
2022/06/14 10:44:19;;;;;;;0.80;0.60;;;23.10;57.60;;;;;;4961297;28;20586;-90
2022/06/14 10:46:54;;;;;;;0.70;0.70;;;23.20;57.40;;;;;;4959787;28;20460;-91
2022/06/14 10:49:44;;;;;;;1.90;0.80;;;23.40;57.30;;;;;;4960820;28;20471;-90
2022/06/14 10:52:37;;;;;;;1.20;1.10;;;23.80;60.50;;;;;;4961507;28;20515;-88
2022/06/14 10:55:34;;;;;;;4.37;0.93;;;23.60;54.70;;;;;;4955917;28;20472;-91
2022/06/14 10:58:17;;;;;;;1.93;1.13;;;23.60;58.70;;;;;;4958802;28;20493;-91
2022/06/14 11:00:50;;;;;;;0.73;0.60;;;23.90;56.60;;;;;;4958115;28;20983;-93
2022/06/14 11:03:31;;;;;;;1.10;0.70;;;24.20;58.10;;;;;;4960382;28;20491;-88
2022/06/14 11:06:31;;;;;;;2.10;0.77;;;24.10;54.10;;;;;;4965089;28;21093;-90
2022/06/14 11:09:12;;;;;;;2.10;0.90;;;24.20;54.30;;;;;;4965108;28;20460;-92
2022/06/14 11:11:53;;;;;;;0.90;0.70;;;23.80;56.90;;;;;;4968399;28;20983;-89
2022/06/14 11:14:37;;;;;;;0.70;0.70;;;23.60;60.50;;;;;;4961254;28;20499;-90
2022/06/14 11:17:22;;;;;;;1.47;0.80;;;23.60;56.80;;;;;;4958109;28;20557;-90
2022/06/14 11:20:03;;;;;;;2.30;0.90;;;23.80;57.50;;;;;;4961599;28;20452;-89
2022/06/14 11:22:39;;;;;;;0.60;0.60;;;24.00;59.70;;;;;;4957884;28;20946;-91
2022/06/14 11:25:22;;;;;;;1.43;1.00;;;24.10;57.00;;;;;;4962296;28;20461;-90
2022/06/14 11:28:00;;;;;;;2.40;0.67;;;24.00;56.70;;;;;;4957210;28;20511;-91
2022/06/14 11:30:37;;;;;;;1.43;0.80;;;23.90;57.10;;;;;;4956884;28;20472;-90
2022/06/14 11:33:22;;;;;;;2.63;0.67;;;23.90;57.10;;;;;;4961712;28;20939;-90
2022/06/14 11:36:04;;;;;;;0.90;0.80;;;24.00;53.60;;;;;;4959710;28;20837;-90
2022/06/14 11:38:53;;;;;;;0.90;0.90;;;24.10;55.40;;;;;;4958655;28;20472;-92
2022/06/14 11:41:26;;;;;;;1.33;0.70;;;23.80;55.80;;;;;;4955917;28;20468;-90
2022/06/14 11:44:05;;;;;;;1.73;0.70;;;23.80;58.40;;;;;;4958215;28;20456;-91
2022/06/14 11:46:44;;;;;;;1.30;1.10;;;23.70;58.00;;;;;;4960183;28;20480;-89
2022/06/14 11:49:19;;;;;;;6.07;0.70;;;23.80;58.80;;;;;;4966100;28;20513;-91
2022/06/14 11:51:54;;;;;;;1.00;0.87;;;23.90;59.10;;;;;;4962972;28;21008;-90
2022/06/14 11:54:25;;;;;;;0.93;0.57;;;24.00;56.60;;;;;;4961004;28;20482;-89
2022/06/14 11:57:09;;;;;;;5.57;1.07;;;24.10;59.50;;;;;;4961137;28;20504;-92
2022/06/14 12:00:00;;;;;;;0.80;0.80;;;24.40;56.40;;;;;;4961670;28;20455;-90
2022/06/14 12:02:56;;;;;;;0.70;0.67;;;24.60;55.90;;;;;;4962285;28;20534;-90
2022/06/14 12:05:40;;;;;;;0.87;0.60;;;24.30;52.40;;;;;;4962648;28;20456;-90
2022/06/14 12:08:26;;;;;;;0.60;0.60;;;24.40;57.70;;;;;;4963229;28;20527;-89
2022/06/14 12:10:57;;;;;;;2.30;0.97;;;24.30;53.00;;;;;;4963578;28;20465;-90
2022/06/14 12:13:51;;;;;;;1.50;0.70;;;24.00;53.40;;;;;;4962535;28;20480;-92
2022/06/14 12:16:23;;;;;;;0.80;0.60;;;24.10;53.30;;;;;;4963362;28;20824;-90
2022/06/14 12:18:58;;;;;;;1.43;1.07;;;23.90;53.50;;;;;;4963374;28;20473;-89
2022/06/14 12:21:32;;;;;;;1.00;0.70;;;24.20;54.50;;;;;;4960233;28;20464;-91
2022/06/14 12:24:04;;;;;;;0.80;0.80;;;24.40;56.80;;;;;;4961230;28;20471;-89
2022/06/14 12:26:39;;;;;;;2.83;1.17;;;24.60;52.60;;;;;;4962139;28;20468;-90
2022/06/14 12:29:15;;;;;;;0.70;0.70;;;24.60;54.80;;;;;;4962052;28;20654;-89
2022/06/14 12:31:53;;;;;;;0.70;0.60;;;24.60;51.90;;;;;;4964352;28;20491;-89
2022/06/14 12:34:25;;;;;;;1.10;0.73;;;24.70;59.10;;;;;;4963829;28;20483;-91
2022/06/14 12:37:06;;;;;;;0.97;0.60;;;24.90;56.60;;;;;;4965732;28;20500;-90
2022/06/14 12:39:39;;;;;;;0.90;0.90;;;25.00;58.40;;;;;;4961811;28;20447;-87
2022/06/14 12:42:12;;;;;;;0.97;0.80;;;25.00;58.90;;;;;;4961210;28;20964;-90
2022/06/14 12:44:55;;;;;;;0.60;0.50;;;24.90;53.90;;;;;;4965495;28;20441;-91
2022/06/14 12:47:28;;;;;;;1.53;0.90;;;24.60;51.50;;;;;;4962263;28;20513;-91
2022/06/14 12:50:12;;;;;;;0.90;0.70;;;24.60;54.20;;;;;;4962642;28;20517;-90
2022/06/14 12:52:45;;;;;;;1.30;0.60;;;25.10;57.50;;;;;;4962082;28;20532;-90
2022/06/14 12:55:19;;;;;;;0.90;0.73;;;25.20;54.90;;;;;;4961671;28;20473;-90
2022/06/14 12:58:04;;;;;;;1.10;0.83;;;25.30;55.50;;;;;;4962128;28;20553;-91
2022/06/14 13:00:40;;;;;;;0.70;0.60;;;25.20;57.90;;;;;;4959584;28;20534;-91
2022/06/14 13:03:18;;;;;;;2.20;0.70;;;25.30;51.10;;;;;;4961484;28;20530;-90
2022/06/14 13:05:49;;;;;;;0.80;0.80;;;25.10;53.70;;;;;;4960338;28;20547;-91
2022/06/14 13:08:25;;;;;;;0.90;0.80;;;24.80;58.00;;;;;;4964327;28;20529;-90
2022/06/14 13:10:59;;;;;;;3.90;0.80;;;24.80;55.00;;;;;;4962917;28;20468;-91
2022/06/14 13:13:52;;;;;;;1.53;0.60;;;24.90;52.50;;;;;;4953830;28;20496;-90
2022/06/14 13:16:33;;;;;;;1.17;0.83;;;25.10;56.30;;;;;;4959752;28;20461;-91
2022/06/14 13:19:10;;;;;;;1.00;0.70;;;25.00;52.40;;;;;;4963734;28;20452;-91
2022/06/14 13:21:50;;;;;;;0.70;0.60;;;25.20;56.30;;;;;;4965118;28;20494;-90
2022/06/14 13:24:27;;;;;;;0.90;0.77;;;24.80;55.70;;;;;;4965478;28;20533;-92
2022/06/14 13:27:10;;;;;;;0.83;0.80;;;24.90;57.50;;;;;;4963260;28;20830;-89
2022/06/14 13:29:48;;;;;;;1.17;0.67;;;25.10;55.80;;;;;;4961021;28;21046;-90
2022/06/14 13:32:35;;;;;;;0.80;0.70;;;25.30;57.00;;;;;;4955497;28;20495;-90
2022/06/14 13:35:28;;;;;;;0.60;0.60;;;25.00;56.20;;;;;;4962622;28;20943;-91
2022/06/14 13:38:01;;;;;;;2.03;0.70;;;24.70;53.60;;;;;;4957720;28;20507;-90
2022/06/14 13:40:35;;;;;;;3.73;1.13;;;24.50;53.20;;;;;;4956532;28;20469;-90
2022/06/14 13:43:13;;;;;;;0.97;0.80;;;24.60;55.30;;;;;;4954133;28;20500;-90
2022/06/14 13:45:45;;;;;;;3.60;1.03;;;24.40;56.40;;;;;;4959024;28;20525;-91
2022/06/14 13:48:20;;;;;;;0.93;0.60;;;24.40;55.70;;;;;;4954592;28;20480;-89
2022/06/14 13:50:51;;;;;;;0.70;0.60;;;24.20;57.00;;;;;;4964197;28;20468;-90
2022/06/14 13:53:23;;;;;;;1.00;0.80;;;24.30;55.20;;;;;;4960106;28;20483;-90